Time,TemperatureF,DewpointF,PressureIn,WindDirection,WindDirectionDegrees,WindSpeedMPH,WindSpeedGustMPH,Humidity,HourlyPrecipIn,Conditions,Clouds,dailyrainin,SoftwareType,DateUTC
2013-01-31 00:05:00,62.3,61.0,29.67,South,187,0.0,-999.0,94,-99.99,,,0.00,weatherlink.com 1.10,2013-01-31 05:05:00,
2013-01-31 00:20:00,62.6,61.0,29.66,South,191,0.0,-999.0,94,-99.99,,,0.00,weatherlink.com 1.10,2013-01-31 05:20:00,
2013-01-31 00:35:00,62.8,61.0,29.64,South,190,0.0,-999.0,94,-99.99,,,0.00,weatherlink.com 1.10,2013-01-31 05:35:00,
2013-01-31 00:50:00,62.8,61.0,29.62,SSW,192,0.0,-999.0,94,-99.99,,,0.00,weatherlink.com 1.10,2013-01-31 05:50:00,
2013-01-31 01:05:00,63.1,61.0,29.61,South,191,0.0,-999.0,94,-99.99,,,0.00,weatherlink.com 1.10,2013-01-31 06:05:00,
2013-01-31 01:20:00,63.3,61.0,29.60,SSW,196,0.0,-999.0,93,-99.99,,,0.00,weatherlink.com 1.10,2013-01-31 06:20:00,
2013-01-31 01:35:00,63.4,61.0,29.59,South,191,0.0,-999.0,93,-99.99,,,0.00,weatherlink.com 1.10,2013-01-31 06:35:00,
2013-01-31 01:50:00,63.6,62.0,29.59,SSW,197,0.0,-999.0,93,-99.99,,,0.00,weatherlink.com 1.10,2013-01-31 06:50:00,
2013-01-31 02:05:00,63.7,62.0,29.57,SSW,199,0.0,-999.0,93,-99.99,,,0.00,weatherlink.com 1.10,2013-01-31 07:05:00,
2013-01-31 02:20:00,63.7,62.0,29.56,SSW,207,0.0,-999.0,93,-99.99,,,0.00,weatherlink.com 1.10,2013-01-31 07:20:00,
2013-01-31 02:35:00,63.7,62.0,29.56,SSW,200,0.0,-999.0,93,-99.99,,,0.00,weatherlink.com 1.10,2013-01-31 07:35:00,
2013-01-31 02:50:00,62.7,61.0,29.61,WSW,239,0.0,-999.0,94,-99.99,,,0.13,weatherlink.com 1.10,2013-01-31 07:50:00,
2013-01-31 03:05:00,60.3,59.0,29.63,West,263,0.0,-999.0,96,-99.99,,,0.16,weatherlink.com 1.10,2013-01-31 08:05:00,
2013-01-31 03:20:00,59.1,57.0,29.63,West,263,0.0,-999.0,94,-99.99,,,0.18,weatherlink.com 1.10,2013-01-31 08:20:00,
2013-01-31 03:35:00,57.2,56.0,29.64,WSW,246,0.0,-999.0,95,-99.99,,,0.20,weatherlink.com 1.10,2013-01-31 08:35:00,
2013-01-31 03:50:00,56.5,55.0,29.64,WSW,253,0.0,-999.0,96,-99.99,,,0.20,weatherlink.com 1.10,2013-01-31 08:50:00,
2013-01-31 04:05:00,56.1,54.0,29.64,WSW,253,0.0,-999.0,94,-99.99,,,0.21,weatherlink.com 1.10,2013-01-31 09:05:00,
2013-01-31 04:20:00,55.7,54.0,29.64,WSW,242,0.0,-999.0,92,-99.99,,,0.21,weatherlink.com 1.10,2013-01-31 09:20:00,
2013-01-31 04:35:00,54.9,53.0,29.64,WSW,242,0.0,-999.0,92,-99.99,,,0.21,weatherlink.com 1.10,2013-01-31 09:35:00,
2013-01-31 04:50:00,54.2,52.0,29.66,WSW,247,0.0,-999.0,92,-99.99,,,0.21,weatherlink.com 1.10,2013-01-31 09:50:00,
2013-01-31 05:05:00,54.0,52.0,29.67,West,268,0.0,-999.0,91,-99.99,,,0.21,weatherlink.com 1.10,2013-01-31 10:05:00,
2013-01-31 05:20:00,53.8,51.0,29.68,West,263,0.0,-999.0,91,-99.99,,,0.21,weatherlink.com 1.10,2013-01-31 10:20:00,
2013-01-31 05:35:00,53.6,51.0,29.69,WSW,250,0.0,-999.0,90,-99.99,,,0.21,weatherlink.com 1.10,2013-01-31 10:35:00,
2013-01-31 05:50:00,53.2,50.0,29.70,West,261,0.0,-999.0,89,-99.99,,,0.21,weatherlink.com 1.10,2013-01-31 10:50:00,
2013-01-31 06:06:00,52.9,50.0,29.71,West,277,0.0,-999.0,88,-99.99,,,0.21,weatherlink.com 1.10,2013-01-31 11:06:00,
2013-01-31 06:21:00,52.8,48.0,29.73,WSW,255,0.0,-999.0,84,-99.99,,,0.21,weatherlink.com 1.10,2013-01-31 11:21:00,
2013-01-31 06:36:00,52.8,49.0,29.74,WSW,245,0.0,-999.0,86,-99.99,,,0.21,weatherlink.com 1.10,2013-01-31 11:36:00,
2013-01-31 06:51:00,52.6,49.0,29.75,WSW,257,0.0,-999.0,86,-99.99,,,0.21,weatherlink.com 1.10,2013-01-31 11:51:00,
2013-01-31 07:06:00,52.4,48.0,29.76,West,274,0.0,-999.0,86,-99.99,,,0.21,weatherlink.com 1.10,2013-01-31 12:06:00,
2013-01-31 07:21:00,52.2,49.0,29.77,WSW,249,0.0,-999.0,87,-99.99,,,0.21,weatherlink.com 1.10,2013-01-31 12:21:00,
2013-01-31 07:36:00,52.3,49.0,29.78,WSW,246,0.0,-999.0,87,-99.99,,,0.21,weatherlink.com 1.10,2013-01-31 12:36:00,
2013-01-31 07:51:00,52.3,48.0,29.78,West,275,0.0,-999.0,86,-99.99,,,0.21,weatherlink.com 1.10,2013-01-31 12:51:00,
2013-01-31 08:06:00,52.3,48.0,29.80,WNW,287,0.0,-999.0,84,-99.99,,,0.21,weatherlink.com 1.10,2013-01-31 13:06:00,
2013-01-31 08:21:00,51.3,44.0,29.82,West,277,0.0,-999.0,76,-99.99,,,0.21,weatherlink.com 1.10,2013-01-31 13:21:00,
2013-01-31 08:36:00,51.5,45.0,29.82,WNW,284,0.0,-999.0,77,-99.99,,,0.21,weatherlink.com 1.10,2013-01-31 13:36:00,
2013-01-31 08:51:00,51.7,43.0,29.83,WNW,291,0.0,-999.0,71,-99.99,,,0.21,weatherlink.com 1.10,2013-01-31 13:51:00,
2013-01-31 09:06:00,51.5,41.0,29.84,WNW,284,0.0,-999.0,68,-99.99,,,0.21,weatherlink.com 1.10,2013-01-31 14:06:00,
2013-01-31 09:21:00,52.1,41.0,29.84,WNW,288,0.0,-999.0,67,-99.99,,,0.21,weatherlink.com 1.10,2013-01-31 14:21:00,
2013-01-31 09:36:00,52.2,41.0,29.85,West,275,0.0,-999.0,65,-99.99,,,0.21,weatherlink.com 1.10,2013-01-31 14:36:00,
2013-01-31 09:51:00,52.7,41.0,29.86,West,269,0.0,-999.0,64,-99.99,,,0.21,weatherlink.com 1.10,2013-01-31 14:51:00,
2013-01-31 10:06:00,53.3,41.0,29.87,WSW,258,0.0,-999.0,64,-99.99,,,0.21,weatherlink.com 1.10,2013-01-31 15:06:00,
2013-01-31 10:21:00,53.3,40.0,29.88,West,266,0.0,-999.0,62,-99.99,,,0.21,weatherlink.com 1.10,2013-01-31 15:21:00,
2013-01-31 10:36:00,52.9,40.0,29.88,WNW,286,0.0,-999.0,61,-99.99,,,0.21,weatherlink.com 1.10,2013-01-31 15:36:00,
2013-01-31 10:51:00,52.4,39.0,29.88,WNW,284,0.0,-999.0,61,-99.99,,,0.21,weatherlink.com 1.10,2013-01-31 15:51:00,
2013-01-31 11:21:00,53.9,38.0,29.89,WNW,301,0.0,-999.0,56,-99.99,,,0.21,weatherlink.com 1.10,2013-01-31 16:21:00,
2013-01-31 11:36:00,53.7,37.0,29.89,WNW,288,0.0,-999.0,54,-99.99,,,0.21,weatherlink.com 1.10,2013-01-31 16:36:00,
2013-01-31 11:51:00,54.3,37.0,29.89,West,281,0.0,-999.0,53,-99.99,,,0.21,weatherlink.com 1.10,2013-01-31 16:51:00,
2013-01-31 12:06:00,54.1,37.0,29.89,WNW,297,0.0,-999.0,53,-99.99,,,0.21,weatherlink.com 1.10,2013-01-31 17:06:00,
2013-01-31 12:21:00,54.9,37.0,29.88,West,275,0.0,-999.0,51,-99.99,,,0.21,weatherlink.com 1.10,2013-01-31 17:21:00,
2013-01-31 12:36:00,54.9,37.0,29.88,WNW,282,0.0,-999.0,51,-99.99,,,0.21,weatherlink.com 1.10,2013-01-31 17:36:00,
2013-01-31 12:51:00,55.6,38.0,29.88,WNW,293,0.0,-999.0,51,-99.99,,,0.21,weatherlink.com 1.10,2013-01-31 17:51:00,
2013-01-31 13:06:00,56.2,37.0,29.88,WSW,256,0.0,-999.0,48,-99.99,,,0.21,weatherlink.com 1.10,2013-01-31 18:06:00,
2013-01-31 13:21:00,56.1,36.0,29.88,West,271,0.0,-999.0,48,-99.99,,,0.21,weatherlink.com 1.10,2013-01-31 18:21:00,
2013-01-31 13:36:00,56.3,35.0,29.88,NNW,335,0.0,-999.0,45,-99.99,,,0.21,weatherlink.com 1.10,2013-01-31 18:36:00,
2013-01-31 13:51:00,56.9,36.0,29.87,West,261,0.0,-999.0,45,-99.99,,,0.21,weatherlink.com 1.10,2013-01-31 18:51:00,
2013-01-31 14:06:00,56.7,36.0,29.88,West,266,0.0,-999.0,46,-99.99,,,0.21,weatherlink.com 1.10,2013-01-31 19:06:00,
2013-01-31 14:21:00,56.9,34.0,29.88,WSW,256,0.0,-999.0,43,-99.99,,,0.21,weatherlink.com 1.10,2013-01-31 19:21:00,
2013-01-31 14:36:00,56.9,32.0,29.89,West,263,0.0,-999.0,39,-99.99,,,0.21,weatherlink.com 1.10,2013-01-31 19:36:00,
2013-01-31 14:51:00,56.8,34.0,29.88,WSW,247,0.0,-999.0,42,-99.99,,,0.21,weatherlink.com 1.10,2013-01-31 19:51:00,
2013-01-31 15:07:00,56.8,34.0,29.89,West,267,0.0,-999.0,43,-99.99,,,0.21,weatherlink.com 1.10,2013-01-31 20:07:00,
2013-01-31 15:22:00,57.1,27.0,29.89,WNW,294,0.0,-999.0,31,-99.99,,,0.21,weatherlink.com 1.10,2013-01-31 20:22:00,
2013-01-31 15:37:00,57.0,29.0,29.90,West,259,0.0,-999.0,34,-99.99,,,0.21,weatherlink.com 1.10,2013-01-31 20:37:00,
2013-01-31 15:52:00,56.7,28.0,29.91,WNW,291,0.0,-999.0,34,-99.99,,,0.21,weatherlink.com 1.10,2013-01-31 20:52:00,
2013-01-31 16:07:00,56.5,29.0,29.91,West,279,0.0,-999.0,35,-99.99,,,0.21,weatherlink.com 1.10,2013-01-31 21:07:00,
2013-01-31 16:22:00,56.2,28.0,29.92,West,275,0.0,-999.0,34,-99.99,,,0.21,weatherlink.com 1.10,2013-01-31 21:22:00,
2013-01-31 16:37:00,55.8,28.0,29.93,West,275,0.0,-999.0,35,-99.99,,,0.21,weatherlink.com 1.10,2013-01-31 21:37:00,
2013-01-31 16:52:00,55.2,28.0,29.93,WNW,288,0.0,-999.0,36,-99.99,,,0.21,weatherlink.com 1.10,2013-01-31 21:52:00,
2013-01-31 17:07:00,54.4,28.0,29.94,WNW,292,0.0,-999.0,37,-99.99,,,0.21,weatherlink.com 1.10,2013-01-31 22:07:00,
2013-01-31 17:22:00,53.6,28.0,29.95,West,263,0.0,-999.0,37,-99.99,,,0.21,weatherlink.com 1.10,2013-01-31 22:22:00,
2013-01-31 17:37:00,52.5,28.0,29.97,WNW,284,0.0,-999.0,39,-99.99,,,0.21,weatherlink.com 1.10,2013-01-31 22:37:00,
2013-01-31 17:52:00,51.9,28.0,29.98,WNW,291,0.0,-999.0,40,-99.99,,,0.21,weatherlink.com 1.10,2013-01-31 22:52:00,
2013-01-31 18:07:00,51.5,28.0,29.98,WNW,293,0.0,-999.0,40,-99.99,,,0.21,weatherlink.com 1.10,2013-01-31 23:07:00,
2013-01-31 18:22:00,51.1,29.0,30.00,West,279,0.0,-999.0,42,-99.99,,,0.21,weatherlink.com 1.10,2013-01-31 23:22:00,
2013-01-31 18:37:00,50.5,29.0,30.01,West,275,0.0,-999.0,43,-99.99,,,0.21,weatherlink.com 1.10,2013-01-31 23:37:00,
2013-01-31 18:52:00,50.2,28.0,30.02,West,269,0.0,-999.0,42,-99.99,,,0.21,weatherlink.com 1.10,2013-01-31 23:52:00,
2013-01-31 19:07:00,50.1,28.0,30.02,WNW,285,0.0,-999.0,43,-99.99,,,0.21,weatherlink.com 1.10,2013-02-01 00:07:00,
2013-01-31 19:22:00,49.8,28.0,30.03,WNW,293,0.0,-999.0,44,-99.99,,,0.21,weatherlink.com 1.10,2013-02-01 00:22:00,
2013-01-31 19:37:00,49.6,28.0,30.04,NW,317,0.0,-999.0,44,-99.99,,,0.21,weatherlink.com 1.10,2013-02-01 00:37:00,
2013-01-31 20:07:00,48.7,29.0,30.05,WNW,296,0.0,-999.0,47,-99.99,,,0.21,weatherlink.com 1.10,2013-02-01 01:07:00,
2013-01-31 20:22:00,48.5,29.0,30.05,West,276,0.0,-999.0,47,-99.99,,,0.21,weatherlink.com 1.10,2013-02-01 01:22:00,
2013-01-31 20:37:00,48.1,30.0,30.06,WNW,292,0.0,-999.0,49,-99.99,,,0.21,weatherlink.com 1.10,2013-02-01 01:37:00,
2013-01-31 20:52:00,47.5,30.0,30.06,North,360,0.0,-999.0,50,-99.99,,,0.21,weatherlink.com 1.10,2013-02-01 01:52:00,
2013-01-31 21:07:00,47.1,30.0,30.07,WNW,302,0.0,-999.0,51,-99.99,,,0.21,weatherlink.com 1.10,2013-02-01 02:07:00,
2013-01-31 21:22:00,47.1,30.0,30.07,WNW,296,0.0,-999.0,51,-99.99,,,0.21,weatherlink.com 1.10,2013-02-01 02:22:00,
2013-01-31 21:37:00,47.1,30.0,30.08,West,274,0.0,-999.0,51,-99.99,,,0.21,weatherlink.com 1.10,2013-02-01 02:37:00,
2013-01-31 21:53:00,46.7,30.0,30.09,WSW,258,0.0,-999.0,52,-99.99,,,0.21,weatherlink.com 1.10,2013-02-01 02:53:00,
2013-01-31 22:08:00,46.4,29.0,30.09,WNW,290,0.0,-999.0,52,-99.99,,,0.21,weatherlink.com 1.10,2013-02-01 03:08:00,
2013-01-31 22:23:00,46.1,29.0,30.09,West,277,0.0,-999.0,52,-99.99,,,0.21,weatherlink.com 1.10,2013-02-01 03:23:00,
2013-01-31 22:38:00,45.8,29.0,30.09,West,273,0.0,-999.0,53,-99.99,,,0.21,weatherlink.com 1.10,2013-02-01 03:38:00,
2013-01-31 22:53:00,45.6,29.0,30.10,WSW,252,0.0,-999.0,53,-99.99,,,0.21,weatherlink.com 1.10,2013-02-01 03:53:00,
2013-01-31 23:08:00,45.3,29.0,30.10,West,276,0.0,-999.0,53,-99.99,,,0.21,weatherlink.com 1.10,2013-02-01 04:08:00,
2013-01-31 23:23:00,45.3,29.0,30.11,West,267,0.0,-999.0,53,-99.99,,,0.21,weatherlink.com 1.10,2013-02-01 04:23:00,
2013-01-31 23:38:00,45.2,28.0,30.11,West,269,0.0,-999.0,52,-99.99,,,0.21,weatherlink.com 1.10,2013-02-01 04:38:00,
2013-01-31 23:53:00,45.2,28.0,30.11,West,267,0.0,-999.0,51,-99.99,,,0.21,weatherlink.com 1.10,2013-02-01 04:53:00,